Time;durP1;ratioP1;P1;durP2;ratioP2;P2;SDS_P1;SDS_P2;PMS_P1;PMS_P2;Temp;Humidity;BMP_temperature;BMP_pressure;BME280_temperature;BME280_humidity;BME280_pressure;Samples;Min_cycle;Max_cycle;Signal;HPM_P1;HPM_P2
2023/03/17 00:01:37;;;;;;;3.00;1.70;;;7.30;99.90;;;;;;4965381;28;20031;-63
2023/03/17 00:04:02;;;;;;;4.05;2.05;;;7.40;99.90;;;;;;4942773;28;20727;-62
2023/03/17 00:06:30;;;;;;;3.63;1.70;;;7.40;99.90;;;;;;4965617;28;20501;-63
2023/03/17 00:08:57;;;;;;;4.97;1.85;;;7.40;99.90;;;;;;4964292;28;20037;-63
2023/03/17 00:11:23;;;;;;;6.80;2.30;;;7.40;99.90;;;;;;4966328;28;20023;-63
2023/03/17 00:13:49;;;;;;;2.60;1.60;;;7.40;99.90;;;;;;4967406;28;20058;-63
2023/03/17 00:16:19;;;;;;;4.57;2.80;;;7.40;99.90;;;;;;4966883;28;20061;-63
2023/03/17 00:18:46;;;;;;;4.78;2.10;;;7.40;99.90;;;;;;4961384;28;20534;-63
2023/03/17 00:21:14;;;;;;;5.47;1.83;;;7.40;99.90;;;;;;4965787;28;20026;-62
2023/03/17 00:23:41;;;;;;;6.00;1.92;;;7.40;99.90;;;;;;4963670;28;20108;-64
2023/03/17 00:26:10;;;;;;;4.32;2.05;;;7.40;99.90;;;;;;4959854;28;20107;-62
2023/03/17 00:28:37;;;;;;;3.25;1.60;;;7.30;99.90;;;;;;4964845;28;20033;-63
2023/03/17 00:31:12;;;;;;;3.78;1.90;;;7.30;99.90;;;;;;4958787;28;20480;-61
2023/03/17 00:33:38;;;;;;;3.88;1.48;;;7.20;99.90;;;;;;4977534;28;20041;-63
2023/03/17 00:36:05;;;;;;;3.92;2.05;;;7.10;99.90;;;;;;4961985;28;20037;-64
2023/03/17 00:38:31;;;;;;;4.63;1.80;;;7.10;99.90;;;;;;4965555;28;20523;-64
2023/03/17 00:40:56;;;;;;;4.25;2.05;;;7.10;99.90;;;;;;4966653;28;20047;-64
2023/03/17 00:43:22;;;;;;;3.47;1.67;;;7.10;99.90;;;;;;4966622;28;20096;-63
2023/03/17 00:45:48;;;;;;;6.82;2.03;;;7.10;99.90;;;;;;4963031;28;20027;-63
2023/03/17 00:48:20;;;;;;;3.60;1.77;;;7.10;99.90;;;;;;4967150;28;20034;-64
2023/03/17 00:50:48;;;;;;;5.35;1.60;;;7.10;99.90;;;;;;4966215;28;20129;-62
2023/03/17 00:53:17;;;;;;;4.05;1.83;;;7.20;99.90;;;;;;4963424;28;20076;-66
2023/03/17 00:55:44;;;;;;;2.83;1.50;;;7.10;99.90;;;;;;4964685;28;20031;-63
2023/03/17 00:58:24;;;;;;;3.92;2.30;;;7.10;99.90;;;;;;4960677;28;20031;-63
2023/03/17 01:00:50;;;;;;;3.78;1.30;;;7.00;99.90;;;;;;4959603;28;20504;-64
2023/03/17 01:03:16;;;;;;;6.40;1.70;;;7.00;99.90;;;;;;4961113;28;20480;-63
2023/03/17 01:05:42;;;;;;;3.45;1.70;;;6.90;99.90;;;;;;4939355;28;20050;-63
2023/03/17 01:08:08;;;;;;;2.97;1.60;;;6.90;99.90;;;;;;4966224;28;20045;-63
2023/03/17 01:10:35;;;;;;;5.70;1.50;;;6.90;99.90;;;;;;4966628;28;20039;-63
2023/03/17 01:13:01;;;;;;;3.35;1.23;;;6.90;99.90;;;;;;4968552;28;20404;-64
2023/03/17 01:15:30;;;;;;;1.90;1.25;;;6.90;99.90;;;;;;4960620;28;22096;-63
2023/03/17 01:17:57;;;;;;;4.45;1.50;;;6.80;99.90;;;;;;4964704;28;20031;-64
2023/03/17 01:20:29;;;;;;;3.60;1.58;;;6.90;99.90;;;;;;4965337;28;20076;-61
2023/03/17 01:22:56;;;;;;;3.08;1.60;;;6.80;99.90;;;;;;4961058;28;20414;-63
2023/03/17 01:25:23;;;;;;;4.60;2.20;;;6.80;99.90;;;;;;4961658;28;20015;-62
2023/03/17 01:27:49;;;;;;;7.35;2.10;;;6.90;99.90;;;;;;4958009;28;20050;-62
2023/03/17 01:30:38;;;;;;;3.30;1.95;;;6.90;99.90;;;;;;4964192;28;20057;-63
2023/03/17 01:33:08;;;;;;;9.93;2.10;;;6.90;99.90;;;;;;4933423;28;20031;-63
2023/03/17 01:35:35;;;;;;;4.57;1.70;;;6.90;99.90;;;;;;4954895;28;20034;-62
2023/03/17 01:38:02;;;;;;;2.35;1.50;;;6.80;99.90;;;;;;4963011;28;20023;-63
2023/03/17 01:40:30;;;;;;;4.28;2.00;;;6.80;99.90;;;;;;4966513;28;20037;-63
2023/03/17 01:43:05;;;;;;;2.65;1.60;;;6.80;99.90;;;;;;4962013;28;20025;-64
2023/03/17 01:46:08;;;;;;;2.10;1.70;;;7.00;99.90;;;;;;4959939;28;20354;-64
2023/03/17 01:48:39;;;;;;;4.85;2.28;;;7.00;99.90;;;;;;4959934;28;20135;-64
2023/03/17 01:51:06;;;;;;;2.40;1.48;;;7.10;99.90;;;;;;4965126;28;20037;-64
2023/03/17 01:53:34;;;;;;;5.43;1.73;;;7.00;99.90;;;;;;4963528;28;20035;-64
2023/03/17 01:56:02;;;;;;;6.88;2.53;;;7.00;99.90;;;;;;4963942;28;20026;-63
2023/03/17 01:58:28;;;;;;;7.35;2.08;;;6.90;99.90;;;;;;4961371;28;20041;-64
2023/03/17 02:00:54;;;;;;;4.72;1.77;;;6.90;99.90;;;;;;4966482;28;20118;-63
2023/03/17 02:03:21;;;;;;;5.07;2.10;;;6.90;99.90;;;;;;4963062;28;20057;-63
2023/03/17 02:05:51;;;;;;;4.60;1.95;;;6.80;99.90;;;;;;4952564;28;20054;-63
2023/03/17 02:08:16;;;;;;;7.60;1.83;;;6.70;99.90;;;;;;4961891;28;20022;-63
2023/03/17 02:10:43;;;;;;;4.30;2.08;;;6.70;99.90;;;;;;4964399;28;20584;-63
2023/03/17 02:13:11;;;;;;;4.50;2.03;;;6.60;99.90;;;;;;4962954;28;20506;-63
2023/03/17 02:15:44;;;;;;;2.78;2.05;;;6.60;99.90;;;;;;4965169;28;22274;-62
2023/03/17 02:18:13;;;;;;;5.30;1.85;;;6.60;99.90;;;;;;4967373;28;20057;-64
2023/03/17 02:20:38;;;;;;;5.30;2.33;;;6.60;99.90;;;;;;4964431;28;20043;-63
2023/03/17 02:23:05;;;;;;;5.53;1.73;;;6.60;99.90;;;;;;4968945;28;20027;-63
2023/03/17 02:25:33;;;;;;;4.10;1.63;;;6.70;99.90;;;;;;4960819;28;20092;-64
2023/03/17 02:28:07;;;;;;;4.50;1.65;;;6.70;99.90;;;;;;4962826;28;20022;-64
2023/03/17 02:30:34;;;;;;;4.05;1.95;;;6.80;99.90;;;;;;4962692;28;20047;-64
2023/03/17 02:33:00;;;;;;;4.57;2.05;;;6.80;99.90;;;;;;4960912;28;20178;-64
2023/03/17 02:35:25;;;;;;;5.75;1.85;;;6.80;99.90;;;;;;4961691;28;20030;-63
2023/03/17 02:37:51;;;;;;;2.90;1.55;;;6.80;99.90;;;;;;4968566;28;20498;-64
2023/03/17 02:40:17;;;;;;;7.00;2.53;;;6.70;99.90;;;;;;4964551;28;20070;-63
2023/03/17 02:42:43;;;;;;;5.28;2.20;;;6.70;99.90;;;;;;4962161;28;20105;-62
2023/03/17 02:45:10;;;;;;;4.68;2.58;;;6.70;99.90;;;;;;4960049;28;20094;-63
2023/03/17 02:47:36;;;;;;;8.60;2.20;;;6.60;99.90;;;;;;4959593;28;20032;-63
2023/03/17 02:50:03;;;;;;;5.68;2.17;;;6.60;99.90;;;;;;4960982;28;20424;-64
2023/03/17 02:52:29;;;;;;;6.22;2.38;;;6.50;99.90;;;;;;4960918;28;20492;-62
2023/03/17 02:54:55;;;;;;;4.70;1.70;;;6.60;99.90;;;;;;4963222;28;20035;-63
2023/03/17 02:57:21;;;;;;;5.10;2.15;;;6.50;99.90;;;;;;4961018;28;20054;-62
2023/03/17 02:59:47;;;;;;;7.00;1.92;;;6.50;99.90;;;;;;4973702;28;20119;-63
2023/03/17 03:02:13;;;;;;;3.47;2.03;;;6.50;99.90;;;;;;4962732;28;20056;-63
2023/03/17 03:04:38;;;;;;;4.72;2.17;;;6.50;99.90;;;;;;4949897;28;20054;-63
2023/03/17 03:07:05;;;;;;;2.85;1.70;;;6.40;99.90;;;;;;4968555;28;20018;-63
2023/03/17 03:09:30;;;;;;;3.50;1.73;;;6.50;99.90;;;;;;4965083;28;20032;-63
2023/03/17 03:11:56;;;;;;;5.30;2.20;;;6.40;99.90;;;;;;4965308;28;20373;-63
2023/03/17 03:14:22;;;;;;;5.32;2.50;;;6.40;99.90;;;;;;4966033;28;20177;-64
2023/03/17 03:16:48;;;;;;;3.97;2.30;;;6.30;99.90;;;;;;4984742;28;20034;-64
2023/03/17 03:19:15;;;;;;;5.47;1.88;;;6.40;99.90;;;;;;4966334;28;20037;-63
2023/03/17 03:21:40;;;;;;;3.40;2.00;;;6.40;99.90;;;;;;4968585;28;20110;-63
2023/03/17 03:24:07;;;;;;;4.82;1.88;;;6.30;99.90;;;;;;4968422;28;20106;-62
2023/03/17 03:26:33;;;;;;;3.75;2.50;;;6.30;99.90;;;;;;4967530;28;20022;-62
2023/03/17 03:28:58;;;;;;;4.47;2.28;;;6.30;99.90;;;;;;4960593;28;20030;-64
2023/03/17 03:31:25;;;;;;;5.38;2.20;;;6.30;99.90;;;;;;4960534;28;20054;-64
2023/03/17 03:33:51;;;;;;;4.95;2.35;;;6.30;99.90;;;;;;4957205;28;20034;-63
2023/03/17 03:36:17;;;;;;;4.68;2.17;;;6.30;99.90;;;;;;4966497;28;20039;-63
2023/03/17 03:38:43;;;;;;;6.85;2.00;;;6.20;99.90;;;;;;4961671;28;20640;-63
2023/03/17 03:41:09;;;;;;;9.93;2.30;;;6.20;99.90;;;;;;4963252;28;20091;-62
2023/03/17 03:43:35;;;;;;;3.92;2.22;;;6.30;99.90;;;;;;4963728;28;20023;-63
2023/03/17 03:46:01;;;;;;;3.60;1.77;;;6.20;99.90;;;;;;4962011;28;20023;-63
2023/03/17 03:48:26;;;;;;;7.82;2.20;;;6.20;99.90;;;;;;4969217;28;20101;-63
2023/03/17 03:51:00;;;;;;;4.10;2.20;;;6.30;99.90;;;;;;4966613;28;20110;-63
2023/03/17 03:53:27;;;;;;;4.07;2.53;;;6.20;99.90;;;;;;4967587;28;20045;-63
2023/03/17 03:55:53;;;;;;;4.95;1.90;;;6.20;99.90;;;;;;4968043;28;20065;-62
2023/03/17 03:58:19;;;;;;;3.63;2.17;;;6.10;99.90;;;;;;4966842;28;20034;-63
2023/03/17 04:00:45;;;;;;;5.38;2.55;;;6.10;99.90;;;;;;4959936;28;20026;-64
2023/03/17 04:03:12;;;;;;;3.47;1.98;;;6.10;99.90;;;;;;4966520;28;20027;-65
2023/03/17 04:05:38;;;;;;;4.53;2.00;;;6.10;99.90;;;;;;4948643;28;20046;-63
2023/03/17 04:08:03;;;;;;;3.53;1.50;;;6.10;99.90;;;;;;4966488;28;20043;-63
2023/03/17 04:10:30;;;;;;;5.95;2.38;;;6.20;99.90;;;;;;4968169;28;20381;-63
2023/03/17 04:12:56;;;;;;;4.65;1.80;;;6.30;99.90;;;;;;4966788;28;20084;-64
2023/03/17 04:15:22;;;;;;;4.43;1.98;;;6.20;99.90;;;;;;4965411;28;20026;-64
2023/03/17 04:17:47;;;;;;;7.30;2.20;;;6.20;99.90;;;;;;4967861;28;20034;-63
2023/03/17 04:20:14;;;;;;;4.95;1.98;;;6.20;99.90;;;;;;4969113;28;20373;-63
2023/03/17 04:22:41;;;;;;;2.65;1.70;;;6.10;99.90;;;;;;4968306;28;20076;-63
2023/03/17 04:25:07;;;;;;;5.07;2.20;;;6.10;99.90;;;;;;4967563;28;20050;-62
2023/03/17 04:27:33;;;;;;;4.72;2.17;;;6.10;99.90;;;;;;4958726;28;20042;-64
2023/03/17 04:29:58;;;;;;;5.78;2.45;;;6.10;99.90;;;;;;4961520;28;20027;-64
2023/03/17 04:32:24;;;;;;;5.82;1.95;;;6.10;99.90;;;;;;4965097;28;20106;-63
2023/03/17 04:34:50;;;;;;;3.00;1.70;;;6.00;99.90;;;;;;4964498;28;20061;-62
2023/03/17 04:37:15;;;;;;;3.13;1.67;;;5.90;99.90;;;;;;4963649;28;20050;-64
2023/03/17 04:39:41;;;;;;;5.40;2.10;;;5.90;99.90;;;;;;4964396;28;20390;-63
2023/03/17 04:42:07;;;;;;;5.03;2.25;;;5.90;99.90;;;;;;4966003;28;20511;-64
2023/03/17 04:44:33;;;;;;;4.70;2.30;;;5.90;99.90;;;;;;4963197;28;20027;-64
2023/03/17 04:46:59;;;;;;;4.40;2.05;;;5.90;99.90;;;;;;4968106;28;20039;-64
2023/03/17 04:49:25;;;;;;;4.97;1.98;;;5.80;99.90;;;;;;4964570;28;20022;-62
2023/03/17 04:51:51;;;;;;;2.78;1.73;;;5.70;99.90;;;;;;4972186;28;20123;-64
2023/03/17 04:54:16;;;;;;;14.23;2.40;;;5.60;99.90;;;;;;4966432;28;20030;-63
2023/03/17 04:56:42;;;;;;;7.72;2.30;;;5.60;99.90;;;;;;4966752;28;20031;-63
2023/03/17 04:59:08;;;;;;;5.30;2.08;;;5.50;99.90;;;;;;4966269;28;20140;-63
2023/03/17 05:01:34;;;;;;;5.10;1.92;;;5.40;99.90;;;;;;4964556;28;20031;-62
2023/03/17 05:04:00;;;;;;;3.40;1.90;;;5.40;99.90;;;;;;4964697;28;20034;-63
2023/03/17 05:06:26;;;;;;;3.88;2.10;;;5.60;99.90;;;;;;4949884;28;20049;-62
2023/03/17 05:08:51;;;;;;;4.70;2.47;;;5.60;99.90;;;;;;4967004;28;20419;-62
2023/03/17 05:11:17;;;;;;;5.80;2.00;;;5.60;99.90;;;;;;4967838;28;20474;-63
2023/03/17 05:13:43;;;;;;;4.82;2.53;;;5.70;99.90;;;;;;4968558;28;20471;-63
2023/03/17 05:16:09;;;;;;;7.35;3.92;;;5.80;99.90;;;;;;4967436;28;20073;-63
2023/03/17 05:18:35;;;;;;;6.97;2.03;;;5.90;99.90;;;;;;4968147;28;20369;-62
2023/03/17 05:21:01;;;;;;;4.22;2.03;;;5.90;99.90;;;;;;4968120;28;20027;-63
2023/03/17 05:23:28;;;;;;;11.35;1.80;;;5.90;99.90;;;;;;4966055;28;20046;-64
2023/03/17 05:25:53;;;;;;;3.88;2.25;;;6.00;99.90;;;;;;4967615;28;20037;-63
2023/03/17 05:28:19;;;;;;;4.80;2.38;;;5.90;99.90;;;;;;4968110;28;20019;-63
2023/03/17 05:30:46;;;;;;;7.28;1.98;;;5.90;99.90;;;;;;4977135;28;20447;-63
2023/03/17 05:33:13;;;;;;;5.13;2.53;;;5.90;99.90;;;;;;4961666;28;20427;-62
2023/03/17 05:35:39;;;;;;;4.90;2.10;;;6.00;99.90;;;;;;4961899;28;20076;-64
2023/03/17 05:38:06;;;;;;;6.72;2.58;;;6.00;99.90;;;;;;4964209;28;20110;-63
2023/03/17 05:40:31;;;;;;;6.43;2.85;;;6.00;99.90;;;;;;4963731;28;20126;-64
2023/03/17 05:42:57;;;;;;;2.88;1.98;;;6.10;99.90;;;;;;4963396;28;20106;-64
2023/03/17 05:45:23;;;;;;;5.30;2.38;;;6.10;99.90;;;;;;4964042;28;20107;-64
2023/03/17 05:47:49;;;;;;;5.80;2.13;;;6.20;99.90;;;;;;4966926;28;20066;-64
2023/03/17 05:50:14;;;;;;;7.28;2.30;;;6.20;99.90;;;;;;4964321;28;20069;-63
2023/03/17 05:52:40;;;;;;;2.38;1.63;;;6.20;99.90;;;;;;4965654;28;20034;-63
2023/03/17 05:55:06;;;;;;;9.55;2.45;;;6.20;99.90;;;;;;4965857;28;20027;-64
2023/03/17 05:57:32;;;;;;;4.35;2.00;;;6.20;99.90;;;;;;4965063;28;20027;-63
2023/03/17 05:59:58;;;;;;;5.72;1.88;;;6.30;99.90;;;;;;4965601;28;20105;-63
2023/03/17 06:02:24;;;;;;;4.25;2.22;;;6.30;99.90;;;;;;4959870;28;20023;-64
2023/03/17 06:04:49;;;;;;;5.72;2.13;;;6.30;99.90;;;;;;4945646;28;20030;-64
2023/03/17 06:07:16;;;;;;;5.00;2.35;;;6.40;99.90;;;;;;4965148;28;20023;-64
2023/03/17 06:09:42;;;;;;;5.05;1.95;;;6.40;99.90;;;;;;4962354;28;20119;-64
2023/03/17 06:12:08;;;;;;;3.45;2.00;;;6.50;99.90;;;;;;4963076;28;20023;-63
2023/03/17 06:14:33;;;;;;;3.97;2.05;;;6.60;99.90;;;;;;4963022;28;20042;-64
2023/03/17 06:16:59;;;;;;;4.47;2.22;;;6.70;99.90;;;;;;4956817;28;20035;-64
2023/03/17 06:19:25;;;;;;;4.20;2.10;;;6.80;99.90;;;;;;4963149;28;20100;-62
2023/03/17 06:21:51;;;;;;;4.60;2.25;;;6.90;99.90;;;;;;4963761;28;20027;-62
2023/03/17 06:24:16;;;;;;;7.13;1.83;;;7.00;99.90;;;;;;4959956;28;20184;-64
2023/03/17 06:26:42;;;;;;;4.30;2.00;;;7.00;99.90;;;;;;4963845;28;20501;-64
2023/03/17 06:29:09;;;;;;;5.95;2.00;;;7.10;99.90;;;;;;4966476;28;20022;-64
2023/03/17 06:31:35;;;;;;;6.65;1.92;;;7.30;99.90;;;;;;4964120;28;20372;-64
2023/03/17 06:34:02;;;;;;;5.10;2.10;;;7.40;99.90;;;;;;4967566;28;20019;-62
2023/03/17 06:36:27;;;;;;;3.08;1.95;;;7.50;99.90;;;;;;4969243;28;20121;-64
2023/03/17 06:38:53;;;;;;;4.57;2.13;;;7.60;99.90;;;;;;4968838;28;20161;-62
2023/03/17 06:41:19;;;;;;;3.05;1.70;;;7.70;99.90;;;;;;4964839;28;20031;-65
2023/03/17 06:43:45;;;;;;;6.40;2.67;;;7.80;99.90;;;;;;4965104;28;20104;-64
2023/03/17 06:46:11;;;;;;;3.63;2.13;;;8.00;99.90;;;;;;4965565;28;20027;-65
2023/03/17 06:48:38;;;;;;;3.65;1.90;;;8.20;99.90;;;;;;5012078;23;20044;-64
2023/03/17 06:51:04;;;;;;;5.25;2.13;;;8.50;99.90;;;;;;5029168;28;20104;-64
2023/03/17 06:53:30;;;;;;;4.35;1.90;;;9.00;99.90;;;;;;5029448;28;20176;-63
2023/03/17 06:55:56;;;;;;;3.38;1.70;;;9.40;99.90;;;;;;5028870;28;20453;-63
2023/03/17 06:58:23;;;;;;;3.65;1.83;;;10.30;99.90;;;;;;5027007;28;20144;-64
2023/03/17 07:00:52;;;;;;;5.43;2.08;;;10.90;98.60;;;;;;5029983;28;20513;-65
2023/03/17 07:03:20;;;;;;;2.50;1.85;;;11.40;97.40;;;;;;5028919;28;20119;-64
2023/03/17 07:05:46;;;;;;;6.00;2.08;;;11.90;97.20;;;;;;5011306;28;20041;-64
2023/03/17 07:08:12;;;;;;;3.20;2.00;;;12.70;96.30;;;;;;5027544;28;20040;-64
2023/03/17 07:10:39;;;;;;;4.78;2.60;;;12.90;95.00;;;;;;5030115;28;20372;-65
2023/03/17 07:13:07;;;;;;;4.60;3.08;;;13.60;93.20;;;;;;5032235;28;20636;-64
2023/03/17 07:15:34;;;;;;;4.05;2.00;;;13.60;92.70;;;;;;5029153;28;20036;-63
2023/03/17 07:18:00;;;;;;;4.32;2.33;;;13.70;91.70;;;;;;5030864;28;20086;-64
2023/03/17 07:20:26;;;;;;;4.30;2.58;;;13.70;92.50;;;;;;5030018;28;20482;-64
2023/03/17 07:22:51;;;;;;;4.28;2.78;;;13.40;92.60;;;;;;5028577;28;20030;-64
2023/03/17 07:25:17;;;;;;;5.53;2.00;;;13.00;92.70;;;;;;5030708;28;20032;-64
2023/03/17 07:27:43;;;;;;;4.45;2.28;;;12.80;93.60;;;;;;5029035;28;20036;-63
2023/03/17 07:30:10;;;;;;;4.40;2.20;;;12.50;93.80;;;;;;5024662;28;20109;-62
2023/03/17 07:32:36;;;;;;;3.67;2.30;;;12.00;94.60;;;;;;5028552;28;20033;-64
2023/03/17 07:35:03;;;;;;;3.42;1.98;;;11.70;95.20;;;;;;5026599;28;20403;-64
2023/03/17 07:50:56;;;;;;;2.97;1.50;;;10.80;97.20;;;;;;5020700;28;20102;-62
2023/03/17 07:53:22;;;;;;;3.33;2.05;;;10.80;98.20;;;;;;5029766;28;20068;-63
2023/03/17 07:55:48;;;;;;;4.40;2.20;;;10.90;97.30;;;;;;5027051;28;20029;-64
2023/03/17 07:58:14;;;;;;;5.63;2.67;;;10.90;97.50;;;;;;5027377;28;20017;-63
2023/03/17 08:00:39;;;;;;;4.93;2.03;;;11.10;97.20;;;;;;5025739;28;20021;-63
2023/03/17 08:03:05;;;;;;;3.63;2.00;;;11.30;97.00;;;;;;5028352;28;20422;-64
2023/03/17 08:05:31;;;;;;;4.45;2.00;;;11.40;96.90;;;;;;5010156;28;20029;-63
2023/03/17 08:07:57;;;;;;;3.08;1.73;;;11.70;97.20;;;;;;5029030;28;20030;-65
2023/03/17 08:10:23;;;;;;;11.07;2.00;;;11.80;96.90;;;;;;5028218;28;20483;-64
2023/03/17 08:12:50;;;;;;;2.72;1.98;;;12.00;96.60;;;;;;5028330;28;20029;-63
2023/03/17 08:15:17;;;;;;;2.38;1.77;;;12.20;96.00;;;;;;5026961;28;20429;-62
2023/03/17 08:17:43;;;;;;;5.32;2.33;;;12.50;96.00;;;;;;5028934;28;20124;-64
2023/03/17 08:20:10;;;;;;;4.03;2.25;;;12.60;94.40;;;;;;5029629;28;20125;-63
2023/03/17 08:22:35;;;;;;;3.50;2.40;;;12.60;94.90;;;;;;5028213;28;20021;-63
2023/03/17 08:25:01;;;;;;;7.60;2.58;;;12.70;95.10;;;;;;5027917;28;20018;-63
2023/03/17 08:27:27;;;;;;;4.93;2.03;;;12.70;94.80;;;;;;5027881;28;20100;-64
2023/03/17 08:29:52;;;;;;;3.38;2.38;;;12.70;94.20;;;;;;5025139;28;20036;-64
2023/03/17 08:32:18;;;;;;;4.60;2.38;;;12.80;94.70;;;;;;5029613;28;20037;-64
2023/03/17 08:34:45;;;;;;;4.13;2.35;;;12.80;94.70;;;;;;5027879;28;20030;-64
2023/03/17 08:37:11;;;;;;;4.53;1.85;;;12.90;94.60;;;;;;5028905;28;20021;-65
2023/03/17 08:39:36;;;;;;;6.03;2.15;;;12.90;94.10;;;;;;5028514;28;20486;-64
2023/03/17 08:42:03;;;;;;;4.63;2.05;;;13.00;93.90;;;;;;5028248;28;20068;-64
2023/03/17 08:44:29;;;;;;;5.13;2.17;;;13.30;94.00;;;;;;5027449;28;20029;-64
2023/03/17 08:46:55;;;;;;;48.60;22.92;;;13.10;94.60;;;;;;5026784;28;20025;-64
2023/03/17 08:49:21;;;;;;;7.97;3.05;;;13.30;94.10;;;;;;5025705;28;20548;-64
2023/03/17 08:51:47;;;;;;;3.15;2.15;;;13.40;93.10;;;;;;5026516;28;20037;-64
2023/03/17 08:54:14;;;;;;;4.03;2.00;;;13.50;94.00;;;;;;5027441;28;20092;-64
2023/03/17 08:56:40;;;;;;;4.30;2.60;;;13.60;93.90;;;;;;5021674;28;20044;-64
2023/03/17 08:59:07;;;;;;;3.05;1.85;;;13.80;93.90;;;;;;5027294;28;20029;-63
2023/03/17 09:01:33;;;;;;;11.73;2.33;;;14.10;93.60;;;;;;5025169;28;20375;-63
2023/03/17 09:03:59;;;;;;;4.20;1.73;;;14.10;93.20;;;;;;5027262;28;20021;-64
2023/03/17 09:06:26;;;;;;;4.43;2.30;;;14.10;93.70;;;;;;5011303;28;20038;-64
2023/03/17 09:08:54;;;;;;;2.53;1.92;;;14.50;92.30;;;;;;5028484;28;20113;-65
2023/03/17 09:11:26;;;;;;;2.92;1.75;;;14.70;92.60;;;;;;5027206;28;20540;-64
2023/03/17 09:13:51;;;;;;;3.45;2.28;;;15.10;91.80;;;;;;5028643;28;20064;-64
2023/03/17 09:16:18;;;;;;;2.60;1.80;;;15.90;91.30;;;;;;5029466;28;20057;-64
2023/03/17 09:18:45;;;;;;;5.88;2.05;;;16.00;90.20;;;;;;5030192;28;20021;-65
2023/03/17 09:21:12;;;;;;;4.93;1.77;;;16.70;89.90;;;;;;5029411;28;20486;-64
2023/03/17 09:23:39;;;;;;;5.50;1.85;;;17.10;86.40;;;;;;5029008;28;20070;-63
2023/03/17 09:26:04;;;;;;;5.07;1.83;;;17.00;86.20;;;;;;5026843;28;20010;-65
2023/03/17 09:28:30;;;;;;;3.38;1.80;;;17.00;87.00;;;;;;5025531;28;20405;-64
2023/03/17 09:31:00;;;;;;;7.70;1.65;;;17.40;85.30;;;;;;5023142;28;20434;-64
2023/03/17 09:33:26;;;;;;;3.45;1.65;;;17.10;85.70;;;;;;5018896;28;20025;-64
2023/03/17 09:35:53;;;;;;;4.57;1.90;;;17.20;83.40;;;;;;5023736;28;20036;-65
2023/03/17 09:38:18;;;;;;;2.53;1.42;;;17.30;84.00;;;;;;5022264;28;20395;-62
2023/03/17 09:40:51;;;;;;;6.45;1.52;;;17.20;83.50;;;;;;5021208;28;20033;-63
2023/03/17 09:43:25;;;;;;;1.98;1.20;;;17.30;85.20;;;;;;5021179;28;20049;-63
2023/03/17 09:45:51;;;;;;;2.20;1.33;;;17.30;86.40;;;;;;5023227;28;20104;-64
2023/03/17 09:48:19;;;;;;;6.53;1.80;;;17.70;83.10;;;;;;5027494;28;20113;-65
2023/03/17 09:50:59;;;;;;;12.20;6.13;;;17.60;83.40;;;;;;5023063;28;20543;-64
2023/03/17 09:53:47;;;;;;;20.48;11.00;;;17.70;82.40;;;;;;5027218;28;20029;-64
2023/03/17 09:56:15;;;;;;;5.38;2.80;;;17.50;82.00;;;;;;5011557;28;20049;-63
2023/03/17 09:58:50;;;;;;;3.90;1.75;;;17.40;83.50;;;;;;5018191;28;20040;-65
2023/03/17 10:01:16;;;;;;;5.60;2.85;;;17.30;84.30;;;;;;5027309;28;20025;-64
2023/03/17 10:03:42;;;;;;;4.43;1.77;;;17.10;83.30;;;;;;5030259;28;20112;-64
2023/03/17 10:06:14;;;;;;;3.72;2.00;;;16.70;82.90;;;;;;5013608;28;20018;-64
2023/03/17 10:08:47;;;;;;;5.57;2.72;;;16.70;84.70;;;;;;5029868;28;20038;-62
2023/03/17 10:11:42;;;;;;;8.27;4.72;;;16.60;84.30;;;;;;5032145;28;20071;-64
2023/03/17 10:14:33;;;;;;;7.32;2.22;;;16.40;84.20;;;;;;5024332;28;22451;-63
2023/03/17 10:17:01;;;;;;;5.20;1.88;;;16.60;84.40;;;;;;5024538;28;20056;-65
2023/03/17 10:19:41;;;;;;;4.32;1.70;;;16.70;86.00;;;;;;5024640;28;20034;-64
2023/03/17 10:22:10;;;;;;;3.33;2.05;;;16.90;86.10;;;;;;5023391;28;20368;-64
2023/03/17 10:24:42;;;;;;;3.30;2.33;;;17.10;84.10;;;;;;5024126;28;20041;-64
2023/03/17 10:27:11;;;;;;;2.90;1.48;;;17.20;84.80;;;;;;5023854;28;20021;-65
2023/03/17 10:29:37;;;;;;;5.60;2.45;;;17.30;84.60;;;;;;5021703;28;20481;-63
2023/03/17 10:32:03;;;;;;;4.15;1.92;;;17.10;84.40;;;;;;5024525;28;20076;-64
2023/03/17 10:34:31;;;;;;;3.33;1.25;;;17.20;85.70;;;;;;5021989;28;20120;-63
2023/03/17 10:37:00;;;;;;;6.22;2.22;;;17.40;83.80;;;;;;5024451;28;20038;-63
2023/03/17 10:39:26;;;;;;;2.42;1.58;;;17.10;84.30;;;;;;5023723;28;20032;-64
2023/03/17 10:42:07;;;;;;;2.67;1.70;;;17.10;84.10;;;;;;5023160;28;20084;-64
2023/03/17 10:44:39;;;;;;;2.97;1.48;;;17.10;83.80;;;;;;5016181;28;20021;-63
2023/03/17 10:47:05;;;;;;;2.72;1.50;;;17.20;84.60;;;;;;5024822;28;20025;-64
2023/03/17 10:49:35;;;;;;;4.38;1.95;;;17.30;84.50;;;;;;5021356;28;20116;-64
2023/03/17 10:52:06;;;;;;;4.80;1.55;;;17.60;83.90;;;;;;5021782;28;20029;-65
2023/03/17 10:54:34;;;;;;;3.05;1.50;;;17.70;82.60;;;;;;5025101;28;20033;-65
2023/03/17 10:57:05;;;;;;;4.50;2.00;;;17.50;83.30;;;;;;5026435;28;20021;-63
2023/03/17 10:59:37;;;;;;;5.55;1.58;;;17.50;83.70;;;;;;5030779;28;20422;-64
2023/03/17 11:02:24;;;;;;;4.82;1.58;;;17.30;83.10;;;;;;5030029;28;20017;-64
2023/03/17 11:04:54;;;;;;;2.47;1.10;;;17.20;83.60;;;;;;5030241;28;20033;-65
2023/03/17 11:07:33;;;;;;;5.97;1.83;;;16.90;83.20;;;;;;5016577;28;20099;-65
2023/03/17 11:10:02;;;;;;;11.13;5.18;;;16.80;84.70;;;;;;5032110;28;20025;-64
2023/03/17 11:12:35;;;;;;;11.80;5.30;;;16.70;84.30;;;;;;5028046;28;20601;-64
2023/03/17 11:15:06;;;;;;;5.70;2.30;;;16.70;85.50;;;;;;5032983;28;20076;-64
2023/03/17 11:17:45;;;;;;;5.72;2.00;;;16.80;84.40;;;;;;5030625;28;20029;-62
2023/03/17 11:20:44;;;;;;;4.15;1.70;;;16.70;85.40;;;;;;5030354;28;20036;-64
2023/03/17 11:23:37;;;;;;;3.05;1.92;;;16.80;86.20;;;;;;5027603;28;20073;-65
2023/03/17 11:26:17;;;;;;;3.70;1.88;;;16.80;84.90;;;;;;5032612;28;20017;-63
2023/03/17 11:28:59;;;;;;;4.72;2.05;;;16.90;85.40;;;;;;5028086;28;20017;-64
2023/03/17 11:31:48;;;;;;;3.55;2.10;;;16.70;84.40;;;;;;5030778;28;20029;-63
2023/03/17 11:34:23;;;;;;;5.45;2.53;;;16.80;85.80;;;;;;5031503;28;20132;-63
2023/03/17 11:37:15;;;;;;;4.82;1.85;;;16.90;85.30;;;;;;5026695;28;20021;-64
2023/03/17 11:40:10;;;;;;;2.10;1.83;;;16.80;85.30;;;;;;5030787;28;20031;-65
2023/03/17 11:42:54;;;;;;;2.20;1.48;;;16.90;85.90;;;;;;5030910;28;20079;-64
2023/03/17 11:45:45;;;;;;;5.60;1.95;;;17.00;86.30;;;;;;5029271;28;20117;-64
2023/03/17 11:48:33;;;;;;;5.45;1.95;;;17.10;84.10;;;;;;5026754;28;20445;-62
2023/03/17 11:51:29;;;;;;;3.13;1.65;;;17.10;84.40;;;;;;5028441;28;20344;-64
2023/03/17 11:54:09;;;;;;;3.50;1.70;;;17.00;84.30;;;;;;5013516;28;20034;-63
2023/03/17 11:56:50;;;;;;;4.50;2.95;;;17.00;85.20;;;;;;5030659;28;20376;-65
2023/03/17 11:59:54;;;;;;;6.70;2.67;;;17.10;83.70;;;;;;5027624;28;20438;-65
2023/03/17 12:02:41;;;;;;;2.60;1.52;;;16.90;84.30;;;;;;5029825;28;20036;-64
2023/03/17 12:05:12;;;;;;;5.28;1.90;;;17.00;85.80;;;;;;5027224;28;20133;-64
2023/03/17 12:07:48;;;;;;;2.97;1.73;;;17.00;85.10;;;;;;5012090;28;20047;-63
2023/03/17 12:10:22;;;;;;;5.70;1.95;;;17.30;85.20;;;;;;5031440;28;20364;-64
2023/03/17 12:13:19;;;;;;;4.07;1.92;;;17.30;85.40;;;;;;5030101;28;20037;-63
2023/03/17 12:15:51;;;;;;;3.95;2.63;;;17.30;83.20;;;;;;5025049;28;20554;-65
2023/03/17 12:18:29;;;;;;;3.55;2.17;;;17.30;85.40;;;;;;5029414;28;20030;-65
2023/03/17 12:21:00;;;;;;;3.75;2.28;;;17.30;84.90;;;;;;5029178;28;20136;-65
2023/03/17 12:23:48;;;;;;;3.58;2.10;;;17.30;85.60;;;;;;5029230;28;20075;-64
2023/03/17 12:26:21;;;;;;;3.50;2.00;;;17.40;85.60;;;;;;5028930;28;20025;-64
2023/03/17 12:28:58;;;;;;;3.63;1.75;;;17.50;84.30;;;;;;5030122;28;20026;-65
2023/03/17 12:31:26;;;;;;;2.80;1.35;;;17.50;84.90;;;;;;5023385;28;20562;-65
2023/03/17 12:34:19;;;;;;;2.85;1.35;;;17.30;85.00;;;;;;5030236;28;20033;-65
2023/03/17 12:36:46;;;;;;;4.97;2.20;;;17.40;84.10;;;;;;5017282;28;20029;-65
2023/03/17 12:39:20;;;;;;;2.42;1.63;;;17.40;86.60;;;;;;5029098;28;20025;-65
2023/03/17 12:41:52;;;;;;;4.15;1.40;;;17.50;84.00;;;;;;5029122;28;20021;-65
2023/03/17 12:44:38;;;;;;;2.20;1.52;;;17.60;83.90;;;;;;5028764;28;20044;-64
2023/03/17 12:47:22;;;;;;;3.38;1.63;;;17.60;84.80;;;;;;5029081;28;20021;-64
2023/03/17 12:50:09;;;;;;;6.03;3.38;;;17.60;84.80;;;;;;5024468;28;20132;-63
2023/03/17 12:53:21;;;;;;;5.22;1.83;;;17.50;83.50;;;;;;5028513;28;20432;-63
2023/03/17 12:55:50;;;;;;;5.32;2.25;;;17.40;84.50;;;;;;5020365;28;20112;-63
2023/03/17 12:58:34;;;;;;;16.42;2.28;;;17.20;83.90;;;;;;5027814;28;20026;-63
2023/03/17 13:01:32;;;;;;;3.72;1.90;;;17.30;85.00;;;;;;5026500;28;20036;-63
2023/03/17 13:04:04;;;;;;;3.28;1.80;;;17.30;84.60;;;;;;5018866;28;20034;-64
2023/03/17 13:06:36;;;;;;;14.05;2.22;;;17.50;85.40;;;;;;5022060;28;20431;-65
2023/03/17 13:09:34;;;;;;;5.22;1.48;;;17.40;84.50;;;;;;5010286;28;20065;-63
2023/03/17 13:12:02;;;;;;;2.85;1.40;;;17.40;83.10;;;;;;5021209;28;20017;-63
2023/03/17 13:14:45;;;;;;;4.53;1.45;;;17.30;83.50;;;;;;5026617;28;20558;-64
2023/03/17 13:17:17;;;;;;;3.42;1.27;;;17.30;83.70;;;;;;5030811;28;20021;-63
2023/03/17 13:20:03;;;;;;;4.55;1.55;;;17.10;83.80;;;;;;5026177;28;20113;-64